Time;durP1;ratioP1;P1;durP2;ratioP2;P2;SDS_P1;SDS_P2;PMS_P1;PMS_P2;Temp;Humidity;BMP_temperature;BMP_pressure;BME280_temperature;BME280_humidity;BME280_pressure;Samples;Min_cycle;Max_cycle;Signal;HPM_P1;HPM_P2
2023/05/13 00:02:11;;;;;;;0.00;0.00;;;12.90;99.90;;;;;;5050222;28;20257;-72
2023/05/13 00:04:38;;;;;;;0.00;0.00;;;12.90;99.90;;;;;;5050577;28;20206;-73
2023/05/13 00:07:05;;;;;;;0.00;0.00;;;12.90;99.90;;;;;;5054421;28;20234;-72
2023/05/13 00:09:32;;;;;;;0.00;0.00;;;12.80;99.90;;;;;;5054393;28;20242;-72
2023/05/13 00:12:02;;;;;;;0.13;0.13;;;12.80;99.90;;;;;;5053795;28;20262;-72
2023/05/13 00:14:29;;;;;;;0.00;0.00;;;12.70;99.90;;;;;;5053863;28;20709;-73
2023/05/13 00:16:57;;;;;;;0.00;0.00;;;12.90;99.90;;;;;;5053814;28;20246;-72
2023/05/13 00:19:24;;;;;;;0.00;0.00;;;12.90;99.90;;;;;;5053909;28;20207;-73
2023/05/13 00:21:51;;;;;;;0.10;0.10;;;12.80;99.90;;;;;;5053468;28;20206;-72
2023/05/13 00:24:18;;;;;;;0.00;0.00;;;12.90;99.90;;;;;;5053866;28;20241;-73
2023/05/13 00:26:45;;;;;;;0.00;0.00;;;12.90;99.90;;;;;;5053386;28;20242;-73
2023/05/13 00:29:13;;;;;;;0.00;0.00;;;12.80;99.90;;;;;;5053714;28;20207;-73
2023/05/13 00:31:40;;;;;;;0.08;0.08;;;12.90;99.90;;;;;;5053156;28;20234;-73
2023/05/13 00:34:07;;;;;;;0.00;0.00;;;12.80;99.90;;;;;;5053774;28;20199;-72
2023/05/13 00:36:34;;;;;;;0.00;0.00;;;12.90;99.90;;;;;;5053825;28;20203;-73
2023/05/13 00:39:01;;;;;;;0.00;0.00;;;13.00;99.90;;;;;;5053458;28;20238;-73
2023/05/13 00:41:28;;;;;;;0.00;0.00;;;12.90;99.90;;;;;;5053429;28;20459;-73
2023/05/13 00:43:55;;;;;;;0.00;0.00;;;12.80;99.90;;;;;;5053049;28;20238;-74
2023/05/13 00:46:24;;;;;;;0.00;0.00;;;13.10;99.90;;;;;;5053523;28;20203;-72
2023/05/13 00:48:51;;;;;;;0.00;0.00;;;13.10;99.90;;;;;;5053050;28;20199;-73
2023/05/13 00:51:18;;;;;;;0.00;0.00;;;13.10;99.90;;;;;;5053255;28;20260;-72
2023/05/13 00:53:46;;;;;;;0.00;0.00;;;13.00;99.90;;;;;;5052905;28;20745;-73
2023/05/13 00:56:13;;;;;;;0.00;0.00;;;13.10;99.90;;;;;;5053431;28;20237;-71
2023/05/13 00:58:40;;;;;;;0.20;0.20;;;13.20;99.90;;;;;;5052738;28;20199;-71
2023/05/13 01:01:22;;;;;;;0.00;0.00;;;13.20;99.90;;;;;;5052975;28;20234;-71
2023/05/13 01:04:00;;;;;;;0.00;0.00;;;13.10;99.90;;;;;;5052725;28;20242;-71
2023/05/13 01:06:33;;;;;;;0.10;0.10;;;13.00;99.90;;;;;;5053061;28;20272;-71
2023/05/13 01:09:19;;;;;;;0.10;0.10;;;13.00;99.90;;;;;;5052570;28;20246;-73
2023/05/13 01:11:49;;;;;;;0.00;0.00;;;13.00;99.90;;;;;;5052384;28;20245;-73
2023/05/13 01:14:22;;;;;;;0.00;0.00;;;13.00;99.90;;;;;;5052970;28;20207;-73
2023/05/13 01:16:53;;;;;;;0.00;0.00;;;13.00;99.90;;;;;;5052327;28;20245;-73
2023/05/13 01:19:36;;;;;;;0.00;0.00;;;13.00;99.90;;;;;;5052788;28;20294;-73
2023/05/13 01:22:05;;;;;;;0.00;0.00;;;12.90;99.90;;;;;;5053128;28;20207;-74
2023/05/13 01:24:32;;;;;;;0.08;0.08;;;13.00;99.90;;;;;;5052962;28;20199;-74
2023/05/13 01:26:59;;;;;;;0.10;0.10;;;12.90;99.90;;;;;;5052341;28;20250;-73
2023/05/13 01:29:27;;;;;;;0.05;0.05;;;12.90;99.90;;;;;;5052803;28;20238;-73
2023/05/13 01:31:55;;;;;;;0.03;0.03;;;13.00;99.90;;;;;;5052213;28;20243;-73
2023/05/13 01:34:23;;;;;;;0.10;0.10;;;13.10;99.90;;;;;;5052612;28;20328;-73
2023/05/13 01:36:50;;;;;;;0.00;0.00;;;13.10;99.90;;;;;;5052042;28;20678;-73
2023/05/13 01:39:20;;;;;;;0.00;0.00;;;13.10;99.90;;;;;;5052431;28;20283;-73
2023/05/13 01:41:46;;;;;;;0.00;0.00;;;13.10;99.90;;;;;;5051819;28;20249;-73
2023/05/13 01:44:14;;;;;;;0.00;0.00;;;13.10;99.90;;;;;;5052425;28;20242;-73
2023/05/13 01:46:43;;;;;;;0.00;0.00;;;13.10;99.90;;;;;;5052051;28;20246;-73
2023/05/13 01:49:10;;;;;;;0.00;0.00;;;13.10;99.90;;;;;;5052336;28;20341;-72
2023/05/13 01:51:37;;;;;;;0.00;0.00;;;13.00;99.90;;;;;;5052193;28;20656;-71
2023/05/13 01:54:04;;;;;;;0.00;0.00;;;12.90;99.90;;;;;;5052279;28;20231;-73
2023/05/13 01:56:33;;;;;;;0.07;0.07;;;13.00;99.90;;;;;;5052350;28;20214;-73
2023/05/13 01:59:00;;;;;;;0.10;0.10;;;13.00;99.90;;;;;;5051735;28;20625;-73
2023/05/13 02:01:27;;;;;;;0.15;0.15;;;13.00;99.90;;;;;;5051844;28;20277;-73
2023/05/13 02:03:54;;;;;;;0.00;0.00;;;12.90;99.90;;;;;;5051673;28;20238;-73
2023/05/13 02:06:20;;;;;;;0.00;0.00;;;12.80;99.90;;;;;;5052023;28;20230;-72
2023/05/13 02:08:47;;;;;;;0.08;0.08;;;13.00;99.90;;;;;;5051516;28;20242;-73
2023/05/13 02:11:14;;;;;;;0.10;0.10;;;13.00;99.90;;;;;;5051759;28;20234;-73
2023/05/13 02:13:42;;;;;;;0.08;0.08;;;12.90;99.90;;;;;;5051330;28;20300;-74
2023/05/13 02:16:14;;;;;;;0.10;0.10;;;12.80;99.90;;;;;;5051823;28;20237;-73
2023/05/13 02:18:41;;;;;;;0.08;0.08;;;12.80;99.90;;;;;;5051028;28;20264;-73
2023/05/13 02:21:07;;;;;;;0.10;0.10;;;12.80;99.90;;;;;;5051641;28;20640;-73
2023/05/13 02:23:34;;;;;;;1.08;1.08;;;12.90;99.90;;;;;;5052106;28;20231;-73
2023/05/13 02:26:02;;;;;;;0.10;0.10;;;12.90;99.90;;;;;;5051549;28;20207;-72
2023/05/13 02:28:28;;;;;;;0.10;0.10;;;13.00;99.90;;;;;;5051069;28;20662;-73
2023/05/13 02:30:57;;;;;;;0.10;0.10;;;12.90;99.90;;;;;;5050780;28;20245;-73
2023/05/13 02:33:24;;;;;;;0.00;0.00;;;13.00;99.90;;;;;;5051287;28;20270;-73
2023/05/13 02:35:50;;;;;;;0.10;0.10;;;13.00;99.90;;;;;;5051221;28;20238;-73
2023/05/13 02:38:17;;;;;;;0.05;0.05;;;12.90;99.90;;;;;;5051329;28;20241;-72
2023/05/13 02:40:44;;;;;;;0.00;0.00;;;13.00;99.90;;;;;;5051096;28;20235;-74
2023/05/13 02:43:11;;;;;;;0.00;0.00;;;13.00;99.90;;;;;;5051178;28;20242;-74
2023/05/13 02:45:40;;;;;;;1.40;1.30;;;13.10;99.90;;;;;;5050806;28;20640;-72
2023/05/13 02:48:09;;;;;;;2.67;1.48;;;13.00;99.90;;;;;;5051458;28;20230;-72
2023/05/13 02:50:36;;;;;;;2.22;1.60;;;13.00;99.90;;;;;;5051300;28;20203;-72
2023/05/13 02:53:03;;;;;;;2.13;1.92;;;13.00;99.90;;;;;;5051347;28;20258;-73
2023/05/13 02:55:30;;;;;;;3.67;2.38;;;13.10;99.90;;;;;;5050941;28;20678;-73
2023/05/13 02:57:57;;;;;;;4.05;2.88;;;13.10;99.90;;;;;;5050740;28;20231;-73
2023/05/13 03:00:24;;;;;;;3.63;2.63;;;13.10;99.90;;;;;;5051075;28;20295;-73
2023/05/13 03:02:51;;;;;;;3.03;2.63;;;13.10;99.90;;;;;;5050396;28;20657;-73
2023/05/13 03:05:19;;;;;;;4.65;2.50;;;13.10;99.90;;;;;;5051092;28;20214;-73
2023/05/13 03:07:46;;;;;;;2.75;2.30;;;13.10;99.90;;;;;;5050242;28;20641;-73
2023/05/13 03:10:14;;;;;;;5.30;2.75;;;13.10;99.90;;;;;;5050954;28;20242;-73
2023/05/13 03:12:42;;;;;;;3.10;2.72;;;13.10;99.90;;;;;;5050352;28;20207;-71
2023/05/13 03:15:10;;;;;;;2.38;2.13;;;13.00;99.90;;;;;;5050873;28;20215;-73
2023/05/13 03:17:37;;;;;;;3.35;2.80;;;13.00;99.90;;;;;;5050922;28;20203;-73
2023/05/13 03:20:04;;;;;;;3.42;2.72;;;13.10;99.90;;;;;;5051216;28;20232;-73
2023/05/13 03:22:33;;;;;;;6.30;3.67;;;13.10;99.90;;;;;;5050813;28;20210;-73
2023/05/13 03:25:00;;;;;;;4.32;3.35;;;13.10;99.90;;;;;;5050290;28;20320;-73
2023/05/13 03:27:27;;;;;;;8.03;3.17;;;13.10;99.90;;;;;;5050642;28;20238;-74
2023/05/13 03:29:53;;;;;;;4.03;2.87;;;13.10;99.90;;;;;;5050490;28;20234;-73
2023/05/13 03:32:21;;;;;;;5.00;3.53;;;13.00;99.90;;;;;;5050824;28;20246;-73
2023/05/13 03:34:48;;;;;;;8.10;4.93;;;13.10;99.90;;;;;;5050320;28;20230;-73
2023/05/13 03:37:15;;;;;;;4.85;3.17;;;13.00;99.90;;;;;;5050480;28;20640;-74
2023/05/13 03:39:43;;;;;;;5.88;3.58;;;13.00;99.90;;;;;;5050873;28;20241;-74
2023/05/13 03:42:10;;;;;;;4.77;3.87;;;13.20;99.90;;;;;;5054520;28;20206;-73
2023/05/13 03:44:37;;;;;;;4.20;3.42;;;13.00;99.90;;;;;;5054548;28;20644;-73
2023/05/13 03:47:05;;;;;;;4.38;3.80;;;13.10;99.90;;;;;;5054997;28;20209;-72
2023/05/13 03:49:31;;;;;;;4.10;3.63;;;13.00;99.90;;;;;;5055000;28;20206;-72
2023/05/13 03:51:58;;;;;;;5.57;4.13;;;13.20;99.90;;;;;;5053918;28;20248;-74
2023/05/13 03:54:25;;;;;;;3.78;3.47;;;13.20;99.90;;;;;;5054170;28;20266;-73
2023/05/13 03:56:54;;;;;;;6.00;4.03;;;13.20;99.90;;;;;;5054187;28;20290;-73
2023/05/13 03:59:20;;;;;;;7.72;4.80;;;13.20;99.90;;;;;;5054491;28;20234;-73
2023/05/13 04:01:47;;;;;;;9.60;4.53;;;13.20;99.90;;;;;;5053411;28;20238;-74
2023/05/13 04:04:14;;;;;;;4.72;3.80;;;13.20;99.90;;;;;;5052930;28;20243;-72
2023/05/13 04:06:41;;;;;;;4.93;4.53;;;13.10;99.90;;;;;;5052090;28;20701;-73
2023/05/13 04:09:08;;;;;;;5.78;4.43;;;13.10;99.90;;;;;;5052781;28;20238;-73
2023/05/13 04:11:35;;;;;;;4.70;4.30;;;13.10;99.90;;;;;;5053086;28;20206;-73
2023/05/13 04:14:03;;;;;;;6.10;4.07;;;13.10;99.90;;;;;;5052791;28;20327;-73
2023/05/13 04:16:30;;;;;;;4.82;4.32;;;13.20;99.90;;;;;;5053013;28;20238;-73
2023/05/13 04:18:57;;;;;;;5.45;4.40;;;13.10;99.90;;;;;;5052367;28;20295;-72
2023/05/13 04:21:24;;;;;;;4.93;4.35;;;13.20;99.90;;;;;;5052524;28;20241;-73
2023/05/13 04:23:51;;;;;;;7.05;5.15;;;13.20;99.90;;;;;;5052215;28;20253;-75
2023/05/13 04:26:19;;;;;;;7.60;5.05;;;13.20;99.90;;;;;;5052801;28;20241;-74
2023/05/13 04:28:45;;;;;;;7.00;5.53;;;13.20;99.90;;;;;;5052336;28;20245;-74
2023/05/13 04:31:14;;;;;;;5.22;4.72;;;13.10;99.90;;;;;;5052443;28;20250;-74
2023/05/13 04:33:41;;;;;;;5.80;5.00;;;13.10;99.90;;;;;;5051987;28;20274;-73
2023/05/13 04:36:08;;;;;;;7.22;6.05;;;13.10;99.90;;;;;;5052204;28;20230;-73
2023/05/13 04:38:35;;;;;;;8.95;7.15;;;13.10;99.90;;;;;;5052057;28;20286;-72
2023/05/13 04:41:02;;;;;;;6.97;5.95;;;13.20;99.90;;;;;;5052050;28;20199;-72
2023/05/13 04:43:29;;;;;;;7.68;5.40;;;13.20;99.90;;;;;;5046712;28;20238;-72
2023/05/13 04:45:56;;;;;;;8.27;6.25;;;13.20;99.90;;;;;;5032016;28;20675;-73
2023/05/13 04:48:26;;;;;;;6.43;5.28;;;13.20;99.90;;;;;;5032369;28;20250;-73
2023/05/13 04:50:53;;;;;;;7.03;6.32;;;13.10;99.90;;;;;;5031242;28;20685;-73
2023/05/13 04:53:20;;;;;;;6.30;5.32;;;13.10;99.90;;;;;;5032137;28;20654;-73
2023/05/13 04:55:48;;;;;;;7.20;5.50;;;13.10;99.90;;;;;;5037913;28;20682;-72
2023/05/13 04:58:15;;;;;;;6.15;5.55;;;13.20;99.90;;;;;;5051818;28;20226;-72
2023/05/13 05:00:42;;;;;;;7.78;6.45;;;13.00;99.90;;;;;;5051666;28;20286;-73
2023/05/13 05:03:09;;;;;;;6.35;5.75;;;13.00;99.90;;;;;;5013302;28;1114244;-72
2023/05/13 05:05:37;;;;;;;6.32;5.72;;;13.10;99.90;;;;;;5053153;28;20637;-73
2023/05/13 05:08:04;;;;;;;7.20;5.53;;;13.00;99.90;;;;;;5053458;28;20238;-73
2023/05/13 05:10:31;;;;;;;7.03;6.32;;;13.00;99.90;;;;;;5053335;28;20207;-73
2023/05/13 05:12:58;;;;;;;6.75;5.82;;;13.00;99.90;;;;;;5052618;28;20245;-72
2023/05/13 05:15:25;;;;;;;6.13;5.53;;;12.90;99.90;;;;;;5052765;28;20249;-71
2023/05/13 05:17:52;;;;;;;8.32;6.50;;;13.00;99.90;;;;;;5051961;28;20325;-71
2023/05/13 05:20:19;;;;;;;9.20;6.93;;;13.00;99.90;;;;;;5052786;28;20272;-72
2023/05/13 05:22:49;;;;;;;6.15;5.57;;;13.00;99.90;;;;;;5052497;28;20230;-71
2023/05/13 05:25:16;;;;;;;9.27;6.80;;;13.00;99.90;;;;;;5052552;28;20256;-72
2023/05/13 05:27:43;;;;;;;7.80;6.07;;;13.00;99.90;;;;;;5052327;28;20668;-72
2023/05/13 05:30:11;;;;;;;6.60;5.80;;;13.10;99.90;;;;;;5052368;28;20678;-71
2023/05/13 05:32:38;;;;;;;7.13;6.32;;;13.10;99.90;;;;;;5043079;28;20257;-71
2023/05/13 05:35:06;;;;;;;12.57;7.60;;;13.20;99.90;;;;;;5032650;28;20322;-72
2023/05/13 05:37:33;;;;;;;7.28;6.55;;;13.20;99.90;;;;;;5032674;28;20679;-71
2023/05/13 05:40:02;;;;;;;7.40;6.70;;;13.20;99.90;;;;;;5032255;28;20231;-71
2023/05/13 05:42:29;;;;;;;7.53;6.55;;;13.30;99.90;;;;;;5032431;28;20294;-70
2023/05/13 05:44:56;;;;;;;7.55;6.78;;;13.20;99.90;;;;;;5031655;28;20250;-69
2023/05/13 05:47:23;;;;;;;11.63;7.93;;;13.20;99.90;;;;;;5049963;28;20335;-70
2023/05/13 05:49:50;;;;;;;10.23;7.00;;;13.20;99.90;;;;;;5041122;28;20757;-70
2023/05/13 05:52:17;;;;;;;9.55;7.25;;;13.20;99.90;;;;;;5051108;28;20662;-70
2023/05/13 05:54:44;;;;;;;9.48;6.78;;;13.30;99.90;;;;;;5032153;28;20338;-70
2023/05/13 05:57:12;;;;;;;9.55;7.32;;;13.30;99.90;;;;;;5052114;28;20238;-70
2023/05/13 05:59:39;;;;;;;8.63;5.97;;;13.30;99.90;;;;;;5051616;28;20207;-70
2023/05/13 06:02:07;;;;;;;7.60;6.80;;;13.20;99.90;;;;;;5051412;28;20235;-70
2023/05/13 06:04:33;;;;;;;8.95;5.65;;;13.20;99.90;;;;;;5052111;28;20234;-70
2023/05/13 06:07:00;;;;;;;7.28;6.40;;;13.20;99.90;;;;;;5051544;28;20249;-70
2023/05/13 06:09:27;;;;;;;8.00;7.20;;;13.40;99.90;;;;;;5052003;28;20241;-70
2023/05/13 06:11:54;;;;;;;7.90;7.13;;;13.40;99.90;;;;;;5049886;28;20238;-70
2023/05/13 06:14:22;;;;;;;7.55;6.85;;;13.40;99.90;;;;;;5051352;28;20329;-70
2023/05/13 06:16:49;;;;;;;9.18;6.90;;;13.40;99.90;;;;;;5049855;28;20245;-70
2023/05/13 06:19:16;;;;;;;7.63;6.78;;;13.40;99.90;;;;;;5051699;28;20254;-71
2023/05/13 06:21:43;;;;;;;9.32;7.55;;;13.40;99.90;;;;;;5047515;28;20250;-73
2023/05/13 06:24:10;;;;;;;12.30;6.60;;;13.40;99.90;;;;;;5038421;28;20199;-72
2023/05/13 06:26:37;;;;;;;8.57;7.18;;;13.50;99.90;;;;;;5050677;28;20207;-72
2023/05/13 06:29:04;;;;;;;9.05;7.97;;;13.50;99.90;;;;;;5051536;28;20250;-72
2023/05/13 06:31:32;;;;;;;8.45;7.55;;;13.40;99.90;;;;;;5051845;28;20206;-73
2023/05/13 06:33:59;;;;;;;7.85;6.45;;;13.50;99.90;;;;;;5051154;28;20317;-72
2023/05/13 06:36:26;;;;;;;7.68;6.60;;;13.50;99.90;;;;;;5051408;28;20250;-72
2023/05/13 06:38:54;;;;;;;12.40;6.55;;;13.50;99.90;;;;;;5049786;28;20245;-73
2023/05/13 06:41:20;;;;;;;7.30;6.60;;;13.50;99.90;;;;;;5046597;28;20289;-72
2023/05/13 06:43:47;;;;;;;8.82;7.93;;;13.50;99.90;;;;;;5050847;28;20210;-72
2023/05/13 06:46:14;;;;;;;8.65;7.75;;;13.60;99.90;;;;;;5049585;28;20690;-72
2023/05/13 06:48:43;;;;;;;7.78;7.07;;;13.70;99.90;;;;;;5048937;28;20243;-73
2023/05/13 06:51:09;;;;;;;9.05;7.18;;;13.60;99.90;;;;;;5050641;28;20250;-72
2023/05/13 06:53:36;;;;;;;7.20;6.05;;;13.60;99.90;;;;;;5046151;28;20661;-73
2023/05/13 06:56:03;;;;;;;9.95;7.07;;;13.60;99.90;;;;;;5048858;28;20226;-73
2023/05/13 06:58:30;;;;;;;9.30;7.07;;;13.50;99.90;;;;;;5044104;28;20254;-73
2023/05/13 07:00:57;;;;;;;9.85;6.68;;;13.50;99.90;;;;;;5045170;28;20285;-72
2023/05/13 07:03:24;;;;;;;9.95;6.72;;;13.60;99.90;;;;;;5050210;28;20262;-72
2023/05/13 07:05:52;;;;;;;6.88;6.20;;;13.60;99.90;;;;;;5047815;28;20214;-71
2023/05/13 07:08:19;;;;;;;10.05;7.20;;;13.60;99.90;;;;;;5050143;28;20207;-72
2023/05/13 07:10:46;;;;;;;8.57;6.78;;;13.50;99.90;;;;;;5046673;28;20235;-72
2023/05/13 07:13:13;;;;;;;9.05;6.70;;;13.50;99.90;;;;;;5049029;28;20242;-72
2023/05/13 07:15:40;;;;;;;7.15;6.45;;;13.50;99.90;;;;;;5047588;28;20266;-73
2023/05/13 07:18:07;;;;;;;10.20;7.13;;;13.60;99.90;;;;;;5048520;28;20243;-73
2023/05/13 07:20:34;;;;;;;7.80;6.53;;;13.60;99.90;;;;;;5049737;28;20199;-73
2023/05/13 07:23:03;;;;;;;7.00;5.65;;;13.60;99.90;;;;;;5050192;28;20250;-73
2023/05/13 07:25:29;;;;;;;7.20;6.50;;;13.70;99.90;;;;;;5050237;28;20689;-72
2023/05/13 07:27:56;;;;;;;9.98;6.93;;;13.70;99.90;;;;;;5049740;28;20262;-73
2023/05/13 07:30:23;;;;;;;6.88;6.28;;;13.70;99.90;;;;;;5049891;28;20698;-73
2023/05/13 07:32:50;;;;;;;7.85;5.80;;;13.80;99.90;;;;;;5050288;28;20646;-73
2023/05/13 07:35:17;;;;;;;8.52;5.85;;;13.80;99.90;;;;;;5050421;28;20274;-73
2023/05/13 07:37:44;;;;;;;6.50;5.78;;;13.60;99.90;;;;;;5050535;28;20230;-73
2023/05/13 07:40:13;;;;;;;6.65;5.88;;;13.60;99.90;;;;;;5046844;28;20260;-74
2023/05/13 07:42:40;;;;;;;8.43;5.43;;;13.50;99.90;;;;;;5048822;28;20211;-74
2023/05/13 07:45:08;;;;;;;10.13;6.28;;;13.50;99.90;;;;;;5045771;28;20227;-74
2023/05/13 07:47:35;;;;;;;6.25;5.75;;;13.50;99.90;;;;;;5039777;28;20235;-75
2023/05/13 07:50:02;;;;;;;8.85;5.55;;;13.60;99.90;;;;;;5049520;28;20237;-75
2023/05/13 07:52:29;;;;;;;10.63;8.82;;;13.50;99.90;;;;;;5048575;28;20670;-73
2023/05/13 07:54:56;;;;;;;7.68;6.15;;;13.60;99.90;;;;;;5046854;28;20333;-73
2023/05/13 07:57:25;;;;;;;7.90;6.00;;;13.60;99.90;;;;;;5050962;28;20242;-75
2023/05/13 07:59:53;;;;;;;6.07;5.25;;;13.60;99.90;;;;;;5064815;28;20213;-75
2023/05/13 08:02:20;;;;;;;8.45;5.47;;;13.60;99.90;;;;;;5055597;28;20210;-75
2023/05/13 08:04:47;;;;;;;5.55;4.75;;;13.70;99.90;;;;;;5069890;28;20206;-73
2023/05/13 08:07:14;;;;;;;13.20;5.38;;;13.80;99.90;;;;;;5052593;28;20207;-73
2023/05/13 08:09:41;;;;;;;4.95;4.45;;;13.90;99.90;;;;;;5049560;28;20242;-73
2023/05/13 08:12:08;;;;;;;8.23;4.88;;;13.80;99.90;;;;;;5050094;28;20230;-73
2023/05/13 08:14:37;;;;;;;7.15;4.40;;;13.70;99.90;;;;;;5050272;28;20324;-73
2023/05/13 08:17:05;;;;;;;9.05;4.53;;;13.70;99.90;;;;;;5050351;28;20235;-74
2023/05/13 08:19:32;;;;;;;4.82;3.88;;;13.70;99.90;;;;;;5050794;28;20203;-73
2023/05/13 08:21:59;;;;;;;4.55;4.15;;;13.60;99.90;;;;;;5049819;28;20244;-74
2023/05/13 08:24:26;;;;;;;5.22;3.50;;;13.80;99.90;;;;;;5050229;28;20680;-74
2023/05/13 08:26:53;;;;;;;4.30;3.90;;;13.90;99.90;;;;;;5051082;28;20238;-73
2023/05/13 08:29:20;;;;;;;5.45;4.15;;;14.00;99.90;;;;;;5053385;28;20289;-73
2023/05/13 08:31:48;;;;;;;5.25;3.88;;;13.90;99.90;;;;;;5053402;28;20709;-73
2023/05/13 08:34:15;;;;;;;5.78;3.85;;;13.90;99.90;;;;;;5053689;28;20246;-72
2023/05/13 08:36:42;;;;;;;8.30;4.18;;;14.30;99.90;;;;;;5053502;28;20214;-73
2023/05/13 08:39:09;;;;;;;8.32;3.75;;;15.10;99.90;;;;;;5053877;28;20203;-73
2023/05/13 08:41:38;;;;;;;4.65;3.90;;;14.80;99.90;;;;;;5036465;28;20208;-73
2023/05/13 08:44:06;;;;;;;3.40;2.83;;;14.70;99.90;;;;;;5033912;28;20235;-73
2023/05/13 08:46:36;;;;;;;3.78;3.28;;;14.70;99.90;;;;;;5034127;28;20207;-73
2023/05/13 08:49:05;;;;;;;5.13;3.42;;;15.20;99.90;;;;;;5033870;28;20682;-74
2023/05/13 08:51:32;;;;;;;2.90;2.70;;;15.50;99.90;;;;;;5033988;28;20235;-74
2023/05/13 08:53:59;;;;;;;7.13;2.90;;;15.20;99.90;;;;;;5038463;28;20266;-74
2023/05/13 08:56:28;;;;;;;3.67;2.80;;;15.40;99.90;;;;;;5053032;28;20273;-75
2023/05/13 08:58:55;;;;;;;4.97;3.28;;;15.70;1.00;;;;;;5052934;28;20230;-74
2023/05/13 09:01:23;;;;;;;8.05;3.83;;;15.70;1.00;;;;;;5053152;28;20681;-74
2023/05/13 09:03:57;;;;;;;6.05;3.15;;;16.00;99.90;;;;;;5052960;28;20230;-73
2023/05/13 09:06:25;;;;;;;4.07;2.60;;;16.20;1.00;;;;;;5052062;28;20692;-73
2023/05/13 09:08:53;;;;;;;3.08;2.35;;;15.50;1.00;;;;;;5032915;28;20219;-74
2023/05/13 09:11:20;;;;;;;3.05;2.75;;;15.00;1.00;;;;;;5051085;28;20229;-75
2023/05/13 09:13:56;;;;;;;3.33;3.03;;;14.90;1.00;;;;;;5048502;28;20238;-74
2023/05/13 09:16:24;;;;;;;3.33;2.97;;;15.00;1.00;;;;;;5032680;28;20274;-72
2023/05/13 09:18:57;;;;;;;7.10;3.58;;;14.90;1.00;;;;;;5041441;28;20242;-74
2023/05/13 09:21:27;;;;;;;4.55;2.85;;;16.20;1.00;;;;;;5042998;28;20666;-73
2023/05/13 09:24:08;;;;;;;3.75;2.58;;;16.90;1.00;;;;;;5040936;28;20239;-72
2023/05/13 09:26:35;;;;;;;3.60;2.72;;;17.40;99.90;;;;;;5052547;28;20203;-71
2023/05/13 09:29:19;;;;;;;4.57;2.60;;;16.10;99.90;;;;;;5050805;28;20247;-71
2023/05/13 09:31:48;;;;;;;2.80;2.60;;;17.10;99.90;;;;;;5050542;28;20238;-71
2023/05/13 09:34:23;;;;;;;4.53;3.00;;;18.20;99.90;;;;;;5050373;28;20696;-71
2023/05/13 09:36:57;;;;;;;4.47;2.67;;;17.40;99.90;;;;;;5038001;28;20368;-71
2023/05/13 09:39:24;;;;;;;3.53;2.47;;;16.60;99.90;;;;;;5051257;28;20261;-71
2023/05/13 09:41:52;;;;;;;6.90;3.55;;;16.30;99.90;;;;;;5042966;28;20290;-72
2023/05/13 09:44:20;;;;;;;4.97;3.10;;;18.20;99.90;;;;;;5032512;28;20230;-74
2023/05/13 09:46:47;;;;;;;4.63;3.08;;;18.50;99.90;;;;;;5038594;28;20210;-74
2023/05/13 09:49:15;;;;;;;6.50;2.65;;;18.30;99.90;;;;;;5048042;28;20261;-72
2023/05/13 09:51:44;;;;;;;2.08;1.92;;;19.40;99.90;;;;;;5045730;28;20246;-74
2023/05/13 09:54:12;;;;;;;2.88;2.55;;;18.00;99.90;;;;;;5051856;28;20207;-74
2023/05/13 09:56:39;;;;;;;3.30;2.47;;;16.60;99.90;;;;;;5049762;28;20250;-73
2023/05/13 09:59:06;;;;;;;5.20;3.10;;;16.00;99.90;;;;;;5047756;28;20648;-73
2023/05/13 10:01:35;;;;;;;6.15;3.38;;;18.10;99.90;;;;;;5049266;28;20242;-74
2023/05/13 10:04:04;;;;;;;9.60;3.42;;;17.60;99.90;;;;;;5051877;28;20206;-74
2023/05/13 10:06:33;;;;;;;5.30;2.28;;;16.60;99.90;;;;;;5052061;28;20207;-74
2023/05/13 10:09:02;;;;;;;8.45;3.08;;;16.00;99.90;;;;;;5044916;28;20566;-72
2023/05/13 10:11:34;;;;;;;3.22;2.42;;;18.60;99.90;;;;;;5051304;28;20621;-72
2023/05/13 10:14:03;;;;;;;2.45;2.25;;;19.70;99.90;;;;;;5042905;28;20200;-73
2023/05/13 10:16:31;;;;;;;3.42;2.00;;;24.80;99.90;;;;;;5039085;28;20320;-72
2023/05/13 10:18:59;;;;;;;3.58;2.67;;;22.70;99.90;;;;;;5050957;28;20211;-70
2023/05/13 10:21:26;;;;;;;6.85;2.10;;;24.60;99.90;;;;;;5051105;28;20226;-71
2023/05/13 10:23:54;;;;;;;2.85;1.98;;;23.20;99.90;;;;;;5050254;28;20234;-71
2023/05/13 10:26:21;;;;;;;2.38;2.10;;;20.10;99.90;;;;;;5051188;28;20206;-71
2023/05/13 10:28:50;;;;;;;2.90;2.08;;;17.90;99.90;;;;;;5047772;28;20237;-71
2023/05/13 10:31:17;;;;;;;2.95;1.77;;;17.10;99.90;;;;;;5045285;28;20238;-71
2023/05/13 10:33:45;;;;;;;4.38;2.42;;;16.70;99.90;;;;;;5051040;28;20230;-71
2023/05/13 10:36:30;;;;;;;7.75;4.90;;;16.60;99.90;;;;;;5050316;28;20231;-71
2023/05/13 10:39:17;;;;;;;2.95;2.65;;;17.20;99.90;;;;;;5050288;28;20214;-71
2023/05/13 10:42:24;;;;;;;3.45;2.33;;;17.40;99.90;;;;;;5051023;28;20230;-71
2023/05/13 10:44:54;;;;;;;3.08;2.20;;;17.70;99.90;;;;;;5050662;28;20242;-70
2023/05/13 10:47:21;;;;;;;2.58;2.38;;;17.90;99.90;;;;;;5051337;28;20599;-70
2023/05/13 10:49:51;;;;;;;6.63;2.35;;;17.10;99.90;;;;;;5030836;28;20239;-70
2023/05/13 10:52:18;;;;;;;4.90;2.30;;;17.40;99.90;;;;;;5036917;28;20215;-70
2023/05/13 10:55:00;;;;;;;4.18;2.28;;;17.70;99.90;;;;;;5030605;28;20206;-71
2023/05/13 10:57:35;;;;;;;5.05;2.50;;;18.60;99.90;;;;;;5031151;28;20689;-71
2023/05/13 11:00:18;;;;;;;2.78;2.42;;;18.80;99.90;;;;;;5031120;28;20213;-72
2023/05/13 11:02:45;;;;;;;4.68;2.35;;;18.10;99.90;;;;;;5048188;28;20218;-70
2023/05/13 11:05:20;;;;;;;3.40;2.45;;;17.60;99.90;;;;;;5050496;28;20672;-71
2023/05/13 11:07:56;;;;;;;3.17;2.53;;;17.70;99.90;;;;;;5050364;28;20213;-70
2023/05/13 11:10:28;;;;;;;4.18;2.78;;;18.20;99.90;;;;;;5050950;28;20203;-71
2023/05/13 11:13:25;;;;;;;2.40;1.90;;;18.20;99.90;;;;;;5048935;28;20211;-70
2023/05/13 11:15:54;;;;;;;2.53;1.92;;;18.20;99.90;;;;;;5046096;28;20261;-70
2023/05/13 11:18:29;;;;;;;4.43;3.95;;;18.30;99.90;;;;;;5049589;28;20260;-70
2023/05/13 11:21:02;;;;;;;7.07;4.68;;;18.20;99.90;;;;;;5049445;28;20253;-71
2023/05/13 11:23:29;;;;;;;3.67;2.30;;;18.10;99.90;;;;;;5044388;28;20203;-74
2023/05/13 11:26:13;;;;;;;1.63;1.35;;;17.90;99.90;;;;;;5047585;28;20226;-73
2023/05/13 11:28:58;;;;;;;3.25;1.98;;;18.00;99.90;;;;;;5048906;28;20203;-72
2023/05/13 11:31:27;;;;;;;3.47;2.50;;;17.70;99.90;;;;;;5041071;28;20203;-72
2023/05/13 11:34:11;;;;;;;1.92;1.55;;;17.60;99.90;;;;;;5062544;28;20678;-70
2023/05/13 11:36:39;;;;;;;1.42;1.15;;;17.80;99.90;;;;;;5039280;28;20316;-69
2023/05/13 11:39:10;;;;;;;3.42;1.52;;;18.00;99.90;;;;;;5036490;28;20234;-73
2023/05/13 11:41:37;;;;;;;2.53;2.00;;;18.40;99.90;;;;;;5045100;28;20582;-72
2023/05/13 11:44:05;;;;;;;1.40;1.30;;;18.60;99.90;;;;;;5049419;28;20242;-73
2023/05/13 11:46:35;;;;;;;2.08;1.73;;;18.50;99.90;;;;;;5052217;28;20206;-73
2023/05/13 11:49:02;;;;;;;2.33;1.48;;;18.30;99.90;;;;;;5048757;28;20207;-74
2023/05/13 11:51:30;;;;;;;3.10;1.63;;;18.40;99.90;;;;;;5049872;28;20280;-73
2023/05/13 11:54:01;;;;;;;2.53;1.75;;;18.40;99.90;;;;;;5049742;28;20253;-74
2023/05/13 11:56:29;;;;;;;2.92;1.42;;;18.60;99.90;;;;;;5050488;28;20234;-75
2023/05/13 11:58:56;;;;;;;5.07;1.63;;;18.20;99.90;;;;;;5050080;28;20665;-73
2023/05/13 12:01:24;;;;;;;2.78;1.27;;;18.50;99.90;;;;;;5051072;28;20671;-74
2023/05/13 12:04:01;;;;;;;1.50;1.13;;;18.90;99.90;;;;;;5052903;28;20207;-74
2023/05/13 12:06:28;;;;;;;1.38;1.05;;;19.30;99.90;;;;;;5053482;28;20673;-74
2023/05/13 12:08:55;;;;;;;2.05;1.23;;;19.30;99.90;;;;;;5053909;28;20629;-74
2023/05/13 12:11:23;;;;;;;4.00;1.27;;;18.90;99.90;;;;;;5054087;28;20250;-73
2023/05/13 12:13:50;;;;;;;1.70;1.60;;;18.50;99.90;;;;;;5053567;28;20653;-73
2023/05/13 12:16:17;;;;;;;1.65;1.55;;;18.50;99.90;;;;;;5053655;28;20314;-73
2023/05/13 12:18:58;;;;;;;3.42;1.77;;;18.90;99.90;;;;;;5052716;28;20234;-74
2023/05/13 12:21:26;;;;;;;2.88;1.98;;;18.90;99.90;;;;;;5047743;28;20247;-74
2023/05/13 12:23:53;;;;;;;2.03;1.38;;;19.00;99.90;;;;;;5033609;28;20268;-71
2023/05/13 12:26:20;;;;;;;3.45;2.42;;;18.90;99.90;;;;;;5046721;28;20245;-73
2023/05/13 12:28:47;;;;;;;1.98;1.42;;;18.90;99.90;;;;;;5053412;28;20613;-73
2023/05/13 12:31:17;;;;;;;2.65;1.30;;;18.80;99.90;;;;;;5053580;28;20241;-71
2023/05/13 12:33:48;;;;;;;5.32;3.05;;;18.60;99.90;;;;;;5053578;28;20226;-70
2023/05/13 12:36:18;;;;;;;1.88;1.27;;;18.70;99.90;;;;;;5052929;28;20317;-72
2023/05/13 12:38:59;;;;;;;2.25;1.10;;;18.90;99.90;;;;;;5034604;28;20203;-73
2023/05/13 12:41:28;;;;;;;1.88;1.40;;;18.40;99.90;;;;;;5053356;28;20249;-71
2023/05/13 12:44:02;;;;;;;3.22;1.50;;;18.20;99.90;;;;;;5052550;28;20286;-72
2023/05/13 12:46:30;;;;;;;1.85;1.50;;;18.10;99.90;;;;;;5052905;28;20249;-73
2023/05/13 12:48:58;;;;;;;3.03;1.60;;;18.10;99.90;;;;;;5053011;28;20222;-71
2023/05/13 12:51:26;;;;;;;4.40;1.73;;;18.30;99.90;;;;;;5051315;28;20278;-74
2023/05/13 12:53:54;;;;;;;13.05;8.88;;;18.70;99.90;;;;;;5049735;28;20337;-75